sensor_id;sensor_type;location;lat;lon;timestamp;temperature;humidity
7876;DHT22;69649;53.712;9.680;2023-05-21T00:01:17;11.90;64.30
7876;DHT22;69649;53.712;9.680;2023-05-21T00:03:43;11.90;64.30
7876;DHT22;69649;53.712;9.680;2023-05-21T00:09:01;11.90;64.40
7876;DHT22;69649;53.712;9.680;2023-05-21T00:11:31;11.80;64.50
7876;DHT22;69649;53.712;9.680;2023-05-21T00:14:00;11.80;64.40
7876;DHT22;69649;53.712;9.680;2023-05-21T00:16:25;11.70;64.60
7876;DHT22;69649;53.712;9.680;2023-05-21T00:18:51;11.70;64.70
7876;DHT22;69649;53.712;9.680;2023-05-21T00:21:19;11.70;64.60
7876;DHT22;69649;53.712;9.680;2023-05-21T00:23:50;11.70;64.60
7876;DHT22;69649;53.712;9.680;2023-05-21T00:26:16;11.70;64.60
7876;DHT22;69649;53.712;9.680;2023-05-21T00:28:42;11.70;64.50
7876;DHT22;69649;53.712;9.680;2023-05-21T00:31:07;11.70;64.50
7876;DHT22;69649;53.712;9.680;2023-05-21T00:33:33;11.70;64.40
7876;DHT22;69649;53.712;9.680;2023-05-21T00:35:59;11.60;64.40
7876;DHT22;69649;53.712;9.680;2023-05-21T00:38:24;11.60;64.40
7876;DHT22;69649;53.712;9.680;2023-05-21T00:40:52;11.50;64.40
7876;DHT22;69649;53.712;9.680;2023-05-21T00:43:18;11.50;64.40
7876;DHT22;69649;53.712;9.680;2023-05-21T00:45:43;11.50;64.50
7876;DHT22;69649;53.712;9.680;2023-05-21T00:48:12;11.50;64.50
7876;DHT22;69649;53.712;9.680;2023-05-21T00:50:40;11.40;64.60
7876;DHT22;69649;53.712;9.680;2023-05-21T00:53:07;11.40;64.80
7876;DHT22;69649;53.712;9.680;2023-05-21T00:55:37;11.30;64.90
7876;DHT22;69649;53.712;9.680;2023-05-21T00:58:04;11.30;65.00
7876;DHT22;69649;53.712;9.680;2023-05-21T01:00:34;11.30;65.20
7876;DHT22;69649;53.712;9.680;2023-05-21T01:03:00;11.30;65.20
7876;DHT22;69649;53.712;9.680;2023-05-21T01:05:27;11.20;65.10
7876;DHT22;69649;53.712;9.680;2023-05-21T01:07:54;11.30;65.10
7876;DHT22;69649;53.712;9.680;2023-05-21T01:10:21;11.30;65.10
7876;DHT22;69649;53.712;9.680;2023-05-21T01:12:48;11.30;65.20
7876;DHT22;69649;53.712;9.680;2023-05-21T01:15:15;11.20;65.10
7876;DHT22;69649;53.712;9.680;2023-05-21T01:17:41;11.20;65.20
7876;DHT22;69649;53.712;9.680;2023-05-21T01:20:10;11.20;65.20
7876;DHT22;69649;53.712;9.680;2023-05-21T01:22:41;11.20;65.30
7876;DHT22;69649;53.712;9.680;2023-05-21T01:25:09;11.10;65.60
7876;DHT22;69649;53.712;9.680;2023-05-21T01:27:35;11.10;65.50
7876;DHT22;69649;53.712;9.680;2023-05-21T01:30:01;11.10;65.60
7876;DHT22;69649;53.712;9.680;2023-05-21T01:32:33;11.10;65.70
7876;DHT22;69649;53.712;9.680;2023-05-21T01:35:07;11.10;65.70
7876;DHT22;69649;53.712;9.680;2023-05-21T01:42:54;11.10;65.80
7876;DHT22;69649;53.712;9.680;2023-05-21T01:45:22;11.10;65.80
7876;DHT22;69649;53.712;9.680;2023-05-21T01:47:52;11.10;65.90
7876;DHT22;69649;53.712;9.680;2023-05-21T01:50:19;11.00;66.00
7876;DHT22;69649;53.712;9.680;2023-05-21T01:52:54;11.00;66.10
7876;DHT22;69649;53.712;9.680;2023-05-21T01:55:21;11.00;66.10
7876;DHT22;69649;53.712;9.680;2023-05-21T01:57:54;11.00;66.20
7876;DHT22;69649;53.712;9.680;2023-05-21T02:00:21;11.00;66.20
7876;DHT22;69649;53.712;9.680;2023-05-21T02:02:47;11.00;66.40
7876;DHT22;69649;53.712;9.680;2023-05-21T02:05:13;10.90;66.60
7876;DHT22;69649;53.712;9.680;2023-05-21T02:07:39;10.90;66.70
7876;DHT22;69649;53.712;9.680;2023-05-21T02:10:06;10.90;66.90
7876;DHT22;69649;53.712;9.680;2023-05-21T02:12:32;10.90;66.90
7876;DHT22;69649;53.712;9.680;2023-05-21T02:14:58;10.80;67.00
7876;DHT22;69649;53.712;9.680;2023-05-21T02:17:24;10.80;67.20
7876;DHT22;69649;53.712;9.680;2023-05-21T02:19:50;10.80;67.30
7876;DHT22;69649;53.712;9.680;2023-05-21T02:22:16;10.70;67.50
7876;DHT22;69649;53.712;9.680;2023-05-21T02:24:42;10.70;67.70
7876;DHT22;69649;53.712;9.680;2023-05-21T02:27:08;10.70;67.70
7876;DHT22;69649;53.712;9.680;2023-05-21T02:29:35;10.80;67.50
7876;DHT22;69649;53.712;9.680;2023-05-21T02:32:01;10.80;67.50
7876;DHT22;69649;53.712;9.680;2023-05-21T02:34:27;10.70;67.90
7876;DHT22;69649;53.712;9.680;2023-05-21T02:36:55;10.70;67.90
7876;DHT22;69649;53.712;9.680;2023-05-21T02:39:21;10.70;67.90
7876;DHT22;69649;53.712;9.680;2023-05-21T02:41:47;10.70;68.00
7876;DHT22;69649;53.712;9.680;2023-05-21T02:44:12;10.70;68.20
7876;DHT22;69649;53.712;9.680;2023-05-21T02:46:39;10.70;68.20
7876;DHT22;69649;53.712;9.680;2023-05-21T02:49:05;10.60;68.50
7876;DHT22;69649;53.712;9.680;2023-05-21T02:51:30;10.70;68.50
7876;DHT22;69649;53.712;9.680;2023-05-21T02:53:56;10.70;68.50
7876;DHT22;69649;53.712;9.680;2023-05-21T02:56:22;10.70;68.70
7876;DHT22;69649;53.712;9.680;2023-05-21T02:58:48;10.70;68.70
7876;DHT22;69649;53.712;9.680;2023-05-21T03:01:13;10.60;68.90
7876;DHT22;69649;53.712;9.680;2023-05-21T03:03:39;10.60;69.00
7876;DHT22;69649;53.712;9.680;2023-05-21T03:06:05;10.60;69.10
7876;DHT22;69649;53.712;9.680;2023-05-21T03:08:33;10.60;69.10
7876;DHT22;69649;53.712;9.680;2023-05-21T03:10:59;10.60;69.20
7876;DHT22;69649;53.712;9.680;2023-05-21T03:13:25;10.70;69.30
7876;DHT22;69649;53.712;9.680;2023-05-21T03:15:50;10.60;69.40
7876;DHT22;69649;53.712;9.680;2023-05-21T03:18:18;10.70;69.50
7876;DHT22;69649;53.712;9.680;2023-05-21T03:20:44;10.60;69.80
7876;DHT22;69649;53.712;9.680;2023-05-21T03:23:10;10.60;70.00
7876;DHT22;69649;53.712;9.680;2023-05-21T03:25:37;10.60;69.90
7876;DHT22;69649;53.712;9.680;2023-05-21T03:28:03;10.70;69.70
7876;DHT22;69649;53.712;9.680;2023-05-21T03:30:29;10.70;69.90
7876;DHT22;69649;53.712;9.680;2023-05-21T03:32:55;10.60;70.00
7876;DHT22;69649;53.712;9.680;2023-05-21T03:35:20;10.70;70.10
7876;DHT22;69649;53.712;9.680;2023-05-21T03:37:46;10.70;70.10
7876;DHT22;69649;53.712;9.680;2023-05-21T03:40:12;10.70;70.40
7876;DHT22;69649;53.712;9.680;2023-05-21T03:42:38;10.70;70.40
7876;DHT22;69649;53.712;9.680;2023-05-21T03:45:05;10.70;70.30
7876;DHT22;69649;53.712;9.680;2023-05-21T03:47:31;10.80;70.30
7876;DHT22;69649;53.712;9.680;2023-05-21T03:49:57;10.80;70.50
7876;DHT22;69649;53.712;9.680;2023-05-21T03:52:22;10.80;70.60
7876;DHT22;69649;53.712;9.680;2023-05-21T03:54:48;10.80;70.50
7876;DHT22;69649;53.712;9.680;2023-05-21T03:57:14;10.80;70.40
7876;DHT22;69649;53.712;9.680;2023-05-21T03:59:40;10.90;70.40
7876;DHT22;69649;53.712;9.680;2023-05-21T04:02:06;11.00;70.10
7876;DHT22;69649;53.712;9.680;2023-05-21T04:04:31;11.10;70.00
7876;DHT22;69649;53.712;9.680;2023-05-21T04:06:58;11.10;70.10
7876;DHT22;69649;53.712;9.680;2023-05-21T04:09:24;11.20;69.70
7876;DHT22;69649;53.712;9.680;2023-05-21T04:11:50;11.30;69.60
7876;DHT22;69649;53.712;9.680;2023-05-21T04:14:16;11.40;69.50
7876;DHT22;69649;53.712;9.680;2023-05-21T04:16:41;11.50;69.40
7876;DHT22;69649;53.712;9.680;2023-05-21T04:19:08;11.50;69.50
7876;DHT22;69649;53.712;9.680;2023-05-21T04:21:34;11.50;69.40
7876;DHT22;69649;53.712;9.680;2023-05-21T04:24:00;11.50;69.40
7876;DHT22;69649;53.712;9.680;2023-05-21T04:26:26;11.60;69.60
7876;DHT22;69649;53.712;9.680;2023-05-21T04:28:52;11.70;69.60
7876;DHT22;69649;53.712;9.680;2023-05-21T04:31:18;11.70;69.60
7876;DHT22;69649;53.712;9.680;2023-05-21T04:33:44;11.70;69.40
7876;DHT22;69649;53.712;9.680;2023-05-21T04:36:11;11.70;69.80
7876;DHT22;69649;53.712;9.680;2023-05-21T04:38:36;11.70;69.70
7876;DHT22;69649;53.712;9.680;2023-05-21T04:41:04;11.90;69.60
7876;DHT22;69649;53.712;9.680;2023-05-21T04:43:31;11.90;69.60
7876;DHT22;69649;53.712;9.680;2023-05-21T04:45:57;12.00;69.40
7876;DHT22;69649;53.712;9.680;2023-05-21T04:48:23;12.00;69.30
7876;DHT22;69649;53.712;9.680;2023-05-21T04:50:53;12.10;69.20
7876;DHT22;69649;53.712;9.680;2023-05-21T04:53:21;12.10;69.40
7876;DHT22;69649;53.712;9.680;2023-05-21T04:55:47;12.10;69.30
7876;DHT22;69649;53.712;9.680;2023-05-21T04:58:13;12.20;69.30
7876;DHT22;69649;53.712;9.680;2023-05-21T05:00:41;12.30;69.20
7876;DHT22;69649;53.712;9.680;2023-05-21T05:03:07;12.30;69.40
7876;DHT22;69649;53.712;9.680;2023-05-21T05:05:32;12.40;69.10
7876;DHT22;69649;53.712;9.680;2023-05-21T05:07:58;12.50;69.10
7876;DHT22;69649;53.712;9.680;2023-05-21T05:10:24;12.50;69.00
7876;DHT22;69649;53.712;9.680;2023-05-21T05:12:51;12.60;68.90
7876;DHT22;69649;53.712;9.680;2023-05-21T05:15:16;12.70;69.00
7876;DHT22;69649;53.712;9.680;2023-05-21T05:17:43;12.70;69.00
7876;DHT22;69649;53.712;9.680;2023-05-21T05:20:10;12.70;69.00
7876;DHT22;69649;53.712;9.680;2023-05-21T05:22:36;12.80;69.00
7876;DHT22;69649;53.712;9.680;2023-05-21T05:25:02;12.80;68.70
7876;DHT22;69649;53.712;9.680;2023-05-21T05:27:27;12.80;68.90
7876;DHT22;69649;53.712;9.680;2023-05-21T05:29:53;12.90;68.90
7876;DHT22;69649;53.712;9.680;2023-05-21T05:32:19;12.90;68.80
7876;DHT22;69649;53.712;9.680;2023-05-21T05:34:45;13.00;68.90
7876;DHT22;69649;53.712;9.680;2023-05-21T05:37:11;13.10;68.80
7876;DHT22;69649;53.712;9.680;2023-05-21T05:39:37;13.10;68.90
7876;DHT22;69649;53.712;9.680;2023-05-21T05:42:03;13.20;68.60
7876;DHT22;69649;53.712;9.680;2023-05-21T05:44:28;13.30;68.40
7876;DHT22;69649;53.712;9.680;2023-05-21T05:46:54;13.30;68.60
7876;DHT22;69649;53.712;9.680;2023-05-21T05:49:20;13.30;68.50
7876;DHT22;69649;53.712;9.680;2023-05-21T05:51:46;13.30;68.70
7876;DHT22;69649;53.712;9.680;2023-05-21T05:54:12;13.40;68.50
7876;DHT22;69649;53.712;9.680;2023-05-21T05:56:37;13.50;68.60
7876;DHT22;69649;53.712;9.680;2023-05-21T05:59:03;13.60;68.40
7876;DHT22;69649;53.712;9.680;2023-05-21T06:01:29;13.70;68.30
7876;DHT22;69649;53.712;9.680;2023-05-21T06:03:56;13.70;68.00
7876;DHT22;69649;53.712;9.680;2023-05-21T06:06:22;13.70;68.30
7876;DHT22;69649;53.712;9.680;2023-05-21T06:08:48;13.70;68.30
7876;DHT22;69649;53.712;9.680;2023-05-21T06:11:13;13.80;68.40
7876;DHT22;69649;53.712;9.680;2023-05-21T06:13:44;13.90;68.20
7876;DHT22;69649;53.712;9.680;2023-05-21T06:16:10;13.90;68.10
7876;DHT22;69649;53.712;9.680;2023-05-21T06:18:36;14.00;68.00
7876;DHT22;69649;53.712;9.680;2023-05-21T06:21:02;14.10;67.80
7876;DHT22;69649;53.712;9.680;2023-05-21T06:23:28;14.20;68.00
7876;DHT22;69649;53.712;9.680;2023-05-21T06:25:56;14.40;67.70
7876;DHT22;69649;53.712;9.680;2023-05-21T06:28:22;14.60;67.60
7876;DHT22;69649;53.712;9.680;2023-05-21T06:30:47;14.70;67.10
7876;DHT22;69649;53.712;9.680;2023-05-21T06:33:13;14.90;66.80
7876;DHT22;69649;53.712;9.680;2023-05-21T06:35:39;14.90;66.90
7876;DHT22;69649;53.712;9.680;2023-05-21T06:38:05;15.00;66.90
7876;DHT22;69649;53.712;9.680;2023-05-21T06:40:30;15.20;66.50
7876;DHT22;69649;53.712;9.680;2023-05-21T06:42:56;15.30;66.50
7876;DHT22;69649;53.712;9.680;2023-05-21T06:45:24;15.50;65.90
7876;DHT22;69649;53.712;9.680;2023-05-21T06:47:50;15.80;65.50
7876;DHT22;69649;53.712;9.680;2023-05-21T06:50:16;15.90;65.60
7876;DHT22;69649;53.712;9.680;2023-05-21T06:52:41;15.90;65.50
7876;DHT22;69649;53.712;9.680;2023-05-21T06:55:08;15.80;65.60
7876;DHT22;69649;53.712;9.680;2023-05-21T06:57:34;16.00;65.70
7876;DHT22;69649;53.712;9.680;2023-05-21T06:59:59;16.00;65.40
7876;DHT22;69649;53.712;9.680;2023-05-21T07:02:26;16.10;65.60
7876;DHT22;69649;53.712;9.680;2023-05-21T07:04:51;16.20;65.40
7876;DHT22;69649;53.712;9.680;2023-05-21T07:07:18;16.20;65.00
7876;DHT22;69649;53.712;9.680;2023-05-21T07:09:43;16.30;65.20
7876;DHT22;69649;53.712;9.680;2023-05-21T07:12:09;16.40;65.40
7876;DHT22;69649;53.712;9.680;2023-05-21T07:14:36;16.40;65.00
7876;DHT22;69649;53.712;9.680;2023-05-21T07:17:01;16.40;65.00
7876;DHT22;69649;53.712;9.680;2023-05-21T07:19:27;16.40;64.70
7876;DHT22;69649;53.712;9.680;2023-05-21T07:21:53;16.50;64.80
7876;DHT22;69649;53.712;9.680;2023-05-21T07:24:19;16.60;64.80
7876;DHT22;69649;53.712;9.680;2023-05-21T07:26:45;16.60;65.00
7876;DHT22;69649;53.712;9.680;2023-05-21T07:29:11;16.80;65.00
7876;DHT22;69649;53.712;9.680;2023-05-21T07:31:37;16.80;63.80
7876;DHT22;69649;53.712;9.680;2023-05-21T07:34:02;16.80;64.40
7876;DHT22;69649;53.712;9.680;2023-05-21T07:36:28;17.00;64.60
7876;DHT22;69649;53.712;9.680;2023-05-21T07:38:54;17.20;64.50
7876;DHT22;69649;53.712;9.680;2023-05-21T07:41:20;17.30;63.90
7876;DHT22;69649;53.712;9.680;2023-05-21T07:43:47;17.30;63.80
7876;DHT22;69649;53.712;9.680;2023-05-21T07:46:13;17.40;64.40
7876;DHT22;69649;53.712;9.680;2023-05-21T07:48:38;17.40;64.40
7876;DHT22;69649;53.712;9.680;2023-05-21T07:51:04;17.40;64.30
7876;DHT22;69649;53.712;9.680;2023-05-21T07:53:30;17.50;64.40
7876;DHT22;69649;53.712;9.680;2023-05-21T07:55:58;17.60;63.80
7876;DHT22;69649;53.712;9.680;2023-05-21T07:58:24;17.80;63.20
7876;DHT22;69649;53.712;9.680;2023-05-21T08:00:50;17.90;63.20
7876;DHT22;69649;53.712;9.680;2023-05-21T08:03:17;18.00;62.90
7876;DHT22;69649;53.712;9.680;2023-05-21T08:05:45;18.00;63.30
7876;DHT22;69649;53.712;9.680;2023-05-21T08:08:16;18.10;63.20
7876;DHT22;69649;53.712;9.680;2023-05-21T08:10:43;18.30;62.70
7876;DHT22;69649;53.712;9.680;2023-05-21T08:13:15;18.30;63.70
7876;DHT22;69649;53.712;9.680;2023-05-21T08:15:38;18.40;63.00
7876;DHT22;69649;53.712;9.680;2023-05-21T08:18:04;18.50;62.50
7876;DHT22;69649;53.712;9.680;2023-05-21T08:20:31;18.60;63.40
7876;DHT22;69649;53.712;9.680;2023-05-21T08:22:58;18.70;62.50
7876;DHT22;69649;53.712;9.680;2023-05-21T08:25:27;18.90;63.00
7876;DHT22;69649;53.712;9.680;2023-05-21T08:27:53;19.10;62.70
7876;DHT22;69649;53.712;9.680;2023-05-21T08:30:19;19.20;63.00
7876;DHT22;69649;53.712;9.680;2023-05-21T08:32:46;19.30;62.20
7876;DHT22;69649;53.712;9.680;2023-05-21T08:35:12;19.40;61.80
7876;DHT22;69649;53.712;9.680;2023-05-21T08:37:38;19.20;62.50
7876;DHT22;69649;53.712;9.680;2023-05-21T08:40:05;19.20;61.60
7876;DHT22;69649;53.712;9.680;2023-05-21T08:42:42;19.30;62.00
7876;DHT22;69649;53.712;9.680;2023-05-21T08:45:11;19.40;62.10
7876;DHT22;69649;53.712;9.680;2023-05-21T08:47:40;19.40;61.90
7876;DHT22;69649;53.712;9.680;2023-05-21T08:50:09;19.30;61.40
7876;DHT22;69649;53.712;9.680;2023-05-21T08:52:35;19.30;61.90
7876;DHT22;69649;53.712;9.680;2023-05-21T08:55:03;19.30;61.70
7876;DHT22;69649;53.712;9.680;2023-05-21T08:57:30;19.40;62.10
7876;DHT22;69649;53.712;9.680;2023-05-21T08:59:57;19.60;62.60
7876;DHT22;69649;53.712;9.680;2023-05-21T09:02:23;19.80;62.70
7876;DHT22;69649;53.712;9.680;2023-05-21T09:04:55;20.00;62.20
7876;DHT22;69649;53.712;9.680;2023-05-21T09:07:26;20.00;62.20
7876;DHT22;69649;53.712;9.680;2023-05-21T09:10:06;20.00;61.70
7876;DHT22;69649;53.712;9.680;2023-05-21T09:12:30;20.00;61.80
7876;DHT22;69649;53.712;9.680;2023-05-21T09:14:57;19.90;61.90
7876;DHT22;69649;53.712;9.680;2023-05-21T09:17:23;19.90;62.10
7876;DHT22;69649;53.712;9.680;2023-05-21T09:22:43;19.80;62.60
7876;DHT22;69649;53.712;9.680;2023-05-21T09:25:11;19.70;62.50
7876;DHT22;69649;53.712;9.680;2023-05-21T09:27:37;19.70;61.40
7876;DHT22;69649;53.712;9.680;2023-05-21T09:30:14;19.70;62.00
7876;DHT22;69649;53.712;9.680;2023-05-21T09:32:32;19.90;62.10
7876;DHT22;69649;53.712;9.680;2023-05-21T09:35:21;20.00;62.20
7876;DHT22;69649;53.712;9.680;2023-05-21T09:37:28;20.00;62.70
7876;DHT22;69649;53.712;9.680;2023-05-21T09:39:54;20.00;62.50
7876;DHT22;69649;53.712;9.680;2023-05-21T09:42:19;20.10;62.40
7876;DHT22;69649;53.712;9.680;2023-05-21T09:44:46;20.20;62.30
7876;DHT22;69649;53.712;9.680;2023-05-21T09:47:18;20.20;62.20
7876;DHT22;69649;53.712;9.680;2023-05-21T09:49:43;20.10;62.30
7876;DHT22;69649;53.712;9.680;2023-05-21T09:52:09;20.10;62.20
7876;DHT22;69649;53.712;9.680;2023-05-21T09:54:34;20.10;62.00
7876;DHT22;69649;53.712;9.680;2023-05-21T09:57:01;20.10;62.40
7876;DHT22;69649;53.712;9.680;2023-05-21T09:59:38;20.10;62.40
7876;DHT22;69649;53.712;9.680;2023-05-21T10:02:21;20.20;62.50
7876;DHT22;69649;53.712;9.680;2023-05-21T10:04:51;20.30;62.70
7876;DHT22;69649;53.712;9.680;2023-05-21T10:07:20;20.40;62.30
7876;DHT22;69649;53.712;9.680;2023-05-21T10:09:48;20.50;62.20
7876;DHT22;69649;53.712;9.680;2023-05-21T10:12:16;20.50;62.00
7876;DHT22;69649;53.712;9.680;2023-05-21T10:14:45;20.60;62.00
7876;DHT22;69649;53.712;9.680;2023-05-21T10:17:12;20.70;61.30
7876;DHT22;69649;53.712;9.680;2023-05-21T10:19:40;20.80;61.70
7876;DHT22;69649;53.712;9.680;2023-05-21T10:22:07;20.90;60.80
7876;DHT22;69649;53.712;9.680;2023-05-21T10:24:33;21.10;61.10
7876;DHT22;69649;53.712;9.680;2023-05-21T10:27:01;21.40;61.50
7876;DHT22;69649;53.712;9.680;2023-05-21T10:29:29;21.50;60.60
7876;DHT22;69649;53.712;9.680;2023-05-21T10:31:56;21.80;60.50
7876;DHT22;69649;53.712;9.680;2023-05-21T10:34:22;21.90;60.80
7876;DHT22;69649;53.712;9.680;2023-05-21T10:36:49;22.10;60.30
7876;DHT22;69649;53.712;9.680;2023-05-21T10:39:17;22.30;59.20
7876;DHT22;69649;53.712;9.680;2023-05-21T10:41:53;22.50;59.60
7876;DHT22;69649;53.712;9.680;2023-05-21T10:44:43;22.60;59.40
7876;DHT22;69649;53.712;9.680;2023-05-21T10:50:23;22.80;58.90
7876;DHT22;69649;53.712;9.680;2023-05-21T10:55:37;23.20;58.40
7876;DHT22;69649;53.712;9.680;2023-05-21T11:00:41;23.50;58.00
7876;DHT22;69649;53.712;9.680;2023-05-21T11:03:10;23.60;57.60
7876;DHT22;69649;53.712;9.680;2023-05-21T11:05:38;23.60;58.10
7876;DHT22;69649;53.712;9.680;2023-05-21T11:08:20;23.70;56.70
7876;DHT22;69649;53.712;9.680;2023-05-21T11:10:52;23.70;56.80
7876;DHT22;69649;53.712;9.680;2023-05-21T11:13:18;23.60;58.10
7876;DHT22;69649;53.712;9.680;2023-05-21T11:26:18;24.40;57.00
7876;DHT22;69649;53.712;9.680;2023-05-21T11:28:44;24.40;56.00
7876;DHT22;69649;53.712;9.680;2023-05-21T11:31:26;24.70;56.80
7876;DHT22;69649;53.712;9.680;2023-05-21T11:34:18;24.80;56.40
7876;DHT22;69649;53.712;9.680;2023-05-21T11:36:46;24.70;56.10
7876;DHT22;69649;53.712;9.680;2023-05-21T11:39:16;24.90;56.10
7876;DHT22;69649;53.712;9.680;2023-05-21T11:44:40;24.90;55.60
7876;DHT22;69649;53.712;9.680;2023-05-21T11:47:11;24.80;54.90
7876;DHT22;69649;53.712;9.680;2023-05-21T11:49:39;24.70;55.00
7876;DHT22;69649;53.712;9.680;2023-05-21T11:52:07;24.70;55.50
7876;DHT22;69649;53.712;9.680;2023-05-21T11:54:38;24.70;55.00
7876;DHT22;69649;53.712;9.680;2023-05-21T11:57:05;24.80;54.80
7876;DHT22;69649;53.712;9.680;2023-05-21T11:59:32;24.40;55.30
7876;DHT22;69649;53.712;9.680;2023-05-21T12:02:04;24.70;55.20
7876;DHT22;69649;53.712;9.680;2023-05-21T12:04:31;24.80;56.00
7876;DHT22;69649;53.712;9.680;2023-05-21T12:06:57;25.20;55.90
7876;DHT22;69649;53.712;9.680;2023-05-21T12:09:24;25.40;55.30
7876;DHT22;69649;53.712;9.680;2023-05-21T12:11:49;25.70;54.40
7876;DHT22;69649;53.712;9.680;2023-05-21T12:14:20;25.80;53.50
7876;DHT22;69649;53.712;9.680;2023-05-21T12:16:46;26.00;52.50
7876;DHT22;69649;53.712;9.680;2023-05-21T12:19:12;25.60;52.50
7876;DHT22;69649;53.712;9.680;2023-05-21T12:21:41;25.60;53.60
7876;DHT22;69649;53.712;9.680;2023-05-21T12:24:06;25.80;53.10
7876;DHT22;69649;53.712;9.680;2023-05-21T12:26:32;25.90;54.40
7876;DHT22;69649;53.712;9.680;2023-05-21T12:29:00;26.10;53.30
7876;DHT22;69649;53.712;9.680;2023-05-21T12:31:28;26.00;53.70
7876;DHT22;69649;53.712;9.680;2023-05-21T12:33:54;26.10;53.20
7876;DHT22;69649;53.712;9.680;2023-05-21T12:36:21;26.20;53.80
7876;DHT22;69649;53.712;9.680;2023-05-21T12:38:48;26.20;53.40
7876;DHT22;69649;53.712;9.680;2023-05-21T12:41:15;26.20;53.50
7876;DHT22;69649;53.712;9.680;2023-05-21T12:43:41;26.10;53.60
7876;DHT22;69649;53.712;9.680;2023-05-21T12:46:09;26.00;53.90
7876;DHT22;69649;53.712;9.680;2023-05-21T12:48:37;25.80;53.10
7876;DHT22;69649;53.712;9.680;2023-05-21T12:51:03;25.70;53.50
7876;DHT22;69649;53.712;9.680;2023-05-21T12:53:37;25.80;54.00
7876;DHT22;69649;53.712;9.680;2023-05-21T12:56:10;26.00;53.30
7876;DHT22;69649;53.712;9.680;2023-05-21T12:58:36;26.10;53.90
7876;DHT22;69649;53.712;9.680;2023-05-21T13:01:06;26.40;53.80
7876;DHT22;69649;53.712;9.680;2023-05-21T13:03:33;26.40;52.50
7876;DHT22;69649;53.712;9.680;2023-05-21T13:06:00;26.40;53.10
7876;DHT22;69649;53.712;9.680;2023-05-21T13:08:26;26.40;52.50
7876;DHT22;69649;53.712;9.680;2023-05-21T13:10:52;26.30;53.20
7876;DHT22;69649;53.712;9.680;2023-05-21T13:13:18;26.70;53.50
7876;DHT22;69649;53.712;9.680;2023-05-21T13:15:44;26.90;53.80
7876;DHT22;69649;53.712;9.680;2023-05-21T13:18:09;27.10;51.80
7876;DHT22;69649;53.712;9.680;2023-05-21T13:20:37;27.30;52.70
7876;DHT22;69649;53.712;9.680;2023-05-21T13:23:03;27.30;51.80
7876;DHT22;69649;53.712;9.680;2023-05-21T13:25:29;27.20;52.30
7876;DHT22;69649;53.712;9.680;2023-05-21T13:28:02;27.50;52.60
7876;DHT22;69649;53.712;9.680;2023-05-21T13:30:29;27.50;52.20
7876;DHT22;69649;53.712;9.680;2023-05-21T13:32:55;27.70;51.60
7876;DHT22;69649;53.712;9.680;2023-05-21T13:35:21;27.80;51.90
7876;DHT22;69649;53.712;9.680;2023-05-21T13:37:47;27.70;52.00
7876;DHT22;69649;53.712;9.680;2023-05-21T13:40:14;27.50;52.00
7876;DHT22;69649;53.712;9.680;2023-05-21T13:42:41;27.70;52.80
7876;DHT22;69649;53.712;9.680;2023-05-21T13:45:09;28.00;51.70
7876;DHT22;69649;53.712;9.680;2023-05-21T13:47:36;28.10;51.00
7876;DHT22;69649;53.712;9.680;2023-05-21T13:50:02;28.30;51.50
7876;DHT22;69649;53.712;9.680;2023-05-21T13:52:28;28.40;51.30
7876;DHT22;69649;53.712;9.680;2023-05-21T13:54:54;28.30;51.00
7876;DHT22;69649;53.712;9.680;2023-05-21T13:57:20;28.50;51.10
7876;DHT22;69649;53.712;9.680;2023-05-21T13:59:46;28.40;50.80
7876;DHT22;69649;53.712;9.680;2023-05-21T14:02:12;28.30;50.60
7876;DHT22;69649;53.712;9.680;2023-05-21T14:04:38;28.50;50.00
7876;DHT22;69649;53.712;9.680;2023-05-21T14:07:04;28.30;50.70
7876;DHT22;69649;53.712;9.680;2023-05-21T14:09:31;28.30;51.10
7876;DHT22;69649;53.712;9.680;2023-05-21T14:11:56;28.50;50.60
7876;DHT22;69649;53.712;9.680;2023-05-21T14:14:23;28.50;50.90
7876;DHT22;69649;53.712;9.680;2023-05-21T14:16:50;28.10;50.70
7876;DHT22;69649;53.712;9.680;2023-05-21T14:19:16;28.30;51.00
7876;DHT22;69649;53.712;9.680;2023-05-21T14:21:43;28.30;50.60
7876;DHT22;69649;53.712;9.680;2023-05-21T14:24:09;28.50;50.70
7876;DHT22;69649;53.712;9.680;2023-05-21T14:26:37;28.60;50.10
7876;DHT22;69649;53.712;9.680;2023-05-21T14:29:04;28.50;50.70
7876;DHT22;69649;53.712;9.680;2023-05-21T14:34:02;28.30;50.10
7876;DHT22;69649;53.712;9.680;2023-05-21T14:36:29;28.60;50.00
7876;DHT22;69649;53.712;9.680;2023-05-21T14:38:55;28.90;48.40
7876;DHT22;69649;53.712;9.680;2023-05-21T14:41:25;28.70;48.80
7876;DHT22;69649;53.712;9.680;2023-05-21T14:43:51;29.10;47.80
7876;DHT22;69649;53.712;9.680;2023-05-21T14:46:17;29.20;48.40
7876;DHT22;69649;53.712;9.680;2023-05-21T14:48:43;29.30;48.20
7876;DHT22;69649;53.712;9.680;2023-05-21T14:51:11;29.10;48.40
7876;DHT22;69649;53.712;9.680;2023-05-21T14:53:38;29.70;48.30
7876;DHT22;69649;53.712;9.680;2023-05-21T14:56:05;29.80;48.10
7876;DHT22;69649;53.712;9.680;2023-05-21T14:58:31;29.60;47.50
7876;DHT22;69649;53.712;9.680;2023-05-21T15:00:56;29.50;48.20
7876;DHT22;69649;53.712;9.680;2023-05-21T15:03:22;29.90;47.70
7876;DHT22;69649;53.712;9.680;2023-05-21T15:05:48;30.00;47.40
7876;DHT22;69649;53.712;9.680;2023-05-21T15:08:14;30.10;47.40
7876;DHT22;69649;53.712;9.680;2023-05-21T15:10:40;29.90;47.40
7876;DHT22;69649;53.712;9.680;2023-05-21T15:13:05;29.40;47.60
7876;DHT22;69649;53.712;9.680;2023-05-21T15:15:31;29.20;47.50
7876;DHT22;69649;53.712;9.680;2023-05-21T15:17:57;28.90;48.70
7876;DHT22;69649;53.712;9.680;2023-05-21T15:20:23;28.90;48.80
7876;DHT22;69649;53.712;9.680;2023-05-21T15:22:49;28.80;48.80
7876;DHT22;69649;53.712;9.680;2023-05-21T15:25:15;28.70;48.90
7876;DHT22;69649;53.712;9.680;2023-05-21T15:27:43;28.50;49.60
7876;DHT22;69649;53.712;9.680;2023-05-21T15:30:09;28.40;49.90
7876;DHT22;69649;53.712;9.680;2023-05-21T15:32:35;28.30;49.80
7876;DHT22;69649;53.712;9.680;2023-05-21T15:35:01;28.30;49.10
7876;DHT22;69649;53.712;9.680;2023-05-21T15:37:27;28.50;49.60
7876;DHT22;69649;53.712;9.680;2023-05-21T15:39:55;28.70;49.30
7876;DHT22;69649;53.712;9.680;2023-05-21T15:42:21;28.50;49.50
7876;DHT22;69649;53.712;9.680;2023-05-21T15:44:47;28.20;50.00
7876;DHT22;69649;53.712;9.680;2023-05-21T15:47:13;27.90;50.20
7876;DHT22;69649;53.712;9.680;2023-05-21T15:49:38;27.70;50.20
7876;DHT22;69649;53.712;9.680;2023-05-21T15:52:05;27.40;50.60
7876;DHT22;69649;53.712;9.680;2023-05-21T15:54:31;27.20;50.80
7876;DHT22;69649;53.712;9.680;2023-05-21T15:56:57;27.20;50.80
7876;DHT22;69649;53.712;9.680;2023-05-21T15:59:22;27.10;51.10
7876;DHT22;69649;53.712;9.680;2023-05-21T16:01:52;27.10;51.00
7876;DHT22;69649;53.712;9.680;2023-05-21T16:04:18;27.20;50.80
7876;DHT22;69649;53.712;9.680;2023-05-21T16:06:46;27.20;51.10
7876;DHT22;69649;53.712;9.680;2023-05-21T16:09:14;26.80;51.40
7876;DHT22;69649;53.712;9.680;2023-05-21T16:11:40;26.60;51.60
7876;DHT22;69649;53.712;9.680;2023-05-21T16:14:08;26.60;51.90
7876;DHT22;69649;53.712;9.680;2023-05-21T16:16:34;26.60;51.70
7876;DHT22;69649;53.712;9.680;2023-05-21T16:19:00;26.50;51.90